Flight Track Log - Related Links

Times and Time Zones

All times are in EDT time to prevent confusion due to time zone crossing. See the SKW5516 flight status page for this flight to view local times or setup timezone preferences in your user account.


Time Position Orientation Groundspeed Altitude Reporting Facility
EDT Latitude Longitude Course Direction KTS MPH feet Rate Location/Type
Thu 08:59:31 AM 38.9000 -77.4333 180° South 178 205 1,500  Level Potomac TRACON
Thu 09:00:26 AM 38.8500 -77.4333 180° South 202 232 3,500 2,100 Climbing Potomac TRACON
Thu 09:01:31 AM 38.7833 -77.4333 180° South 255 293 5,700 2,400 Climbing Potomac TRACON
Thu 09:02:26 AM 38.7167 -77.4667 201° Southwest 264 304 8,300 2,557 Climbing Potomac TRACON
Thu 09:03:26 AM 38.6333 -77.4833 189° South 278 320 10,600 1,800 Climbing Potomac TRACON
Thu 09:04:06 AM 38.5975 -77.5361 229° Southwest 287 330 11,300 1,604 Climbing Washington Center
Thu 09:05:07 AM 38.5275 -77.6114 220° Southwest 310 357 13,300 2,115 Climbing Washington Center
Thu 09:06:08 AM 38.4553 -77.6861 219° Southwest 325 374 15,600 2,118 Climbing Washington Center
Thu 09:07:06 AM 38.3850 -77.7611 220° Southwest 338 389 17,500 1,664 Climbing Washington Center
Thu 09:08:07 AM 38.3106 -77.8408 220° Southwest 338 389 18,900 1,438 Climbing Washington Center
Thu 09:09:07 AM 38.2342 -77.9206 219° Southwest 350 403 20,400 1,250 Climbing Washington Center
Thu 09:10:07 AM 38.1553 -78.0025 219° Southwest 360 414 21,400 1,190 Climbing Washington Center
Thu 09:11:08 AM 38.0722 -78.0817 217° Southwest 365 420 22,800 1,361 Climbing Washington Center
Thu 09:12:06 AM 37.9733 -78.1339 203° Southwest 371 427 24,100 1,059 Climbing Washington Center
Thu 09:13:07 AM 37.8911 -78.1731 201° Southwest 384 442 24,900 992 Climbing Washington Center
Thu 09:14:07 AM 37.7750 -78.2400 205° Southwest 394 453 26,100 1,041 Climbing Washington Center
Thu 09:15:08 AM 37.6694 -78.2942 202° Southwest 399 459 27,000 446 Climbing Washington Center
Thu 09:16:08 AM 37.5617 -78.3531 203° Southwest 405 466 27,000 248 Level Washington Center
Thu 09:17:09 AM 37.4883 -78.4603 229° Southwest 405 466 27,500 706 Climbing Washington Center
Thu 09:18:07 AM 37.4292 -78.5681 235° Southwest 417 480 28,400 814 Climbing Washington Center
Thu 09:19:07 AM 37.3514 -78.6775 228° Southwest 422 486 29,100 787 Climbing Washington Center
Thu 09:20:09 AM 37.2672 -78.7811 224° Southwest 428 493 30,000 454 Climbing Washington Center
Thu 09:21:06 AM 37.1811 -78.8842 224° Southwest 433 498 30,000 407 Level Washington Center
Thu 09:22:07 AM 37.0906 -78.9922 224° Southwest 439 505 30,800 3,967 Climbing Washington Center
Thu 09:23:07 AM 36.9972 -79.1106 225° Southwest 446 513 38,000 1,091 Climbing Washington Center
Thu 09:24:08 AM 36.9169 -79.2186 227° Southwest 439 505 33,000 -2,182 Descending Washington Center
Thu 09:25:08 AM 36.8425 -79.3319 231° Southwest 434 499 33,600 1,068 Climbing Washington Center
Thu 09:26:06 AM 36.7681 -79.4397 229° Southwest 428 493 35,100 2,218 Climbing Washington Center
Thu 09:27:07 AM 36.6958 -79.5425 229° Southwest 412 474 38,000 1,438 Climbing Washington Center
Thu 09:28:07 AM 36.6389 -79.6300 231° Southwest 391 450 38,000  Level Washington Center
Thu 09:29:12 AM 36.5628 -79.7406 229° Southwest 366 421 38,000  Level Atlanta Center
Thu 09:30:12 AM 36.4972 -79.8369 230° Southwest 366 421 38,000  Level Atlanta Center
Thu 09:31:12 AM 36.4378 -79.9253 230° Southwest 371 427 38,000  Level Atlanta Center
Thu 09:32:12 AM 36.3719 -80.0164 228° Southwest 371 427 38,000  Level Atlanta Center
Thu 09:33:12 AM 36.3103 -80.1122 231° Southwest 371 427 38,000  Level Atlanta Center
Thu 09:34:12 AM 36.2444 -80.2028 228° Southwest 366 421 38,000  Level Atlanta Center
Thu 09:35:12 AM 36.1747 -80.3064 230° Southwest 366 421 38,000  Level Atlanta Center
Thu 09:36:12 AM 36.1108 -80.3994 230° Southwest 366 421 38,000  Level Atlanta Center
Thu 09:37:12 AM 36.0447 -80.4947 229° Southwest 366 421 38,000  Level Atlanta Center
Thu 09:38:12 AM 35.9806 -80.5900 230° Southwest 366 421 38,000  Level Atlanta Center
Thu 09:39:12 AM 35.9164 -80.6772 228° Southwest 360 414 38,000  Level Atlanta Center
Thu 09:40:12 AM 35.8522 -80.7747 231° Southwest 365 420 38,000  Level Atlanta Center
Thu 09:41:12 AM 35.7878 -80.8669 229° Southwest 365 420 38,000  Level Atlanta Center
Thu 09:42:12 AM 35.7233 -80.9589 229° Southwest 365 420 38,000  Level Atlanta Center
Thu 09:43:12 AM 35.6567 -81.0483 227° Southwest 365 420 38,000  Level Atlanta Center
Thu 09:44:12 AM 35.5881 -81.1453 229° Southwest 372 428 38,000  Level Atlanta Center
Thu 09:45:12 AM 35.5214 -81.2369 228° Southwest 372 428 38,000  Level Atlanta Center
Thu 09:46:12 AM 35.4550 -81.3389 231° Southwest 377 434 38,000  Level Atlanta Center
Thu 09:47:12 AM 35.3922 -81.4275 229° Southwest 370 426 38,000  Level Atlanta Center
Thu 09:48:12 AM 35.3253 -81.5211 229° Southwest 365 420 38,000  Level Atlanta Center
Thu 09:49:12 AM 35.2603 -81.6122 229° Southwest 359 413 38,000  Level Atlanta Center
Thu 09:50:12 AM 35.1975 -81.7031 230° Southwest 359 413 38,000  Level Atlanta Center
Thu 09:51:12 AM 35.1322 -81.7936 229° Southwest 359 413 38,000  Level Atlanta Center
Thu 09:52:12 AM 35.0672 -81.8842 229° Southwest 359 413 38,000  Level Atlanta Center
Thu 09:53:12 AM 35.0103 -81.9669 230° Southwest 359 413 38,000  Level Atlanta Center
Thu 09:54:12 AM 34.9514 -82.0672 234° Southwest 365 420 38,000  Level Atlanta Center
Thu 09:55:12 AM 34.8883 -82.1700 233° Southwest 359 413 38,000  Level Atlanta Center
Thu 09:56:12 AM 34.8269 -82.2675 233° Southwest 367 422 38,000  Level Atlanta Center
Thu 09:57:12 AM 34.7700 -82.3622 234° Southwest 367 422 38,000  Level Atlanta Center
Thu 09:58:12 AM 34.7108 -82.4619 234° Southwest 367 422 38,000  Level Atlanta Center
Thu 09:59:12 AM 34.6514 -82.5592 233° Southwest 362 417 38,000  Level Atlanta Center
Thu 10:00:12 AM 34.5817 -82.6511 227° Southwest 367 422 38,000  Level Atlanta Center
Thu 10:01:12 AM 34.5306 -82.7453 237° Southwest 373 429 38,000  Level Atlanta Center
Thu 10:02:12 AM 34.4708 -82.8444 234° Southwest 367 422 38,000  Level Atlanta Center
Thu 10:03:12 AM 34.4114 -82.9411 233° Southwest 362 417 38,000  Level Atlanta Center
Thu 10:04:12 AM 34.3494 -83.0375 232° Southwest 367 422 38,000  Level Atlanta Center
Thu 10:05:12 AM 34.2897 -83.1361 234° Southwest 360 414 38,000  Level Atlanta Center
Thu 10:06:12 AM 34.2278 -83.2347 233° Southwest 365 420 38,000  Level Atlanta Center
Thu 10:07:12 AM 34.1658 -83.3333 233° Southwest 365 420 38,000  Level Atlanta Center
Thu 10:08:12 AM 34.0997 -83.4442 234° Southwest 365 420 38,000  Level Atlanta Center
Thu 10:09:12 AM 34.0394 -83.5400 233° Southwest 365 420 38,000  Level Atlanta Center
Thu 10:10:12 AM 33.9772 -83.6406 233° Southwest 365 420 38,000  Level Atlanta Center
Thu 10:11:12 AM 33.9128 -83.7383 232° Southwest 365 420 38,000  Level Atlanta Center
Thu 10:12:12 AM 33.8506 -83.8361 233° Southwest 371 427 38,000  Level Atlanta Center
Thu 10:13:12 AM 33.7881 -83.9364 233° Southwest 371 427 38,000  Level Atlanta Center
Thu 10:14:12 AM 33.7233 -84.0364 232° Southwest 376 433 38,000  Level Atlanta Center
Thu 10:15:12 AM 33.6669 -84.1261 233° Southwest 381 438 38,000  Level Atlanta Center
Thu 10:16:12 AM 33.6019 -84.2258 232° Southwest 381 438 38,000  Level Atlanta Center
Thu 10:17:12 AM 33.5372 -84.3253 232° Southwest 386 444 38,000  Level Atlanta Center
Thu 10:18:12 AM 33.4722 -84.4272 233° Southwest 386 444 38,000  Level Atlanta Center
Thu 10:19:12 AM 33.4028 -84.5389 233° Southwest 386 444 38,000  Level Atlanta Center
Thu 10:20:12 AM 33.3397 -84.6381 233° Southwest 386 444 38,000  Level Atlanta Center
Thu 10:21:12 AM 33.2725 -84.7419 232° Southwest 392 451 38,000  Level Atlanta Center
Thu 10:22:12 AM 33.2092 -84.8433 233° Southwest 387 445 38,000  Level Atlanta Center
Thu 10:23:12 AM 33.1439 -84.9419 232° Southwest 393 452 38,000  Level Atlanta Center
Thu 10:24:12 AM 33.0764 -85.0428 231° Southwest 393 452 38,000  Level Atlanta Center
Thu 10:25:12 AM 33.0128 -85.1436 233° Southwest 393 452 38,000  Level Atlanta Center
Thu 10:26:12 AM 32.9472 -85.2369 230° Southwest 382 440 38,000  Level Atlanta Center
Thu 10:27:12 AM 32.8794 -85.3400 232° Southwest 382 440 38,000  Level Atlanta Center
Thu 10:28:12 AM 32.8114 -85.4403 231° Southwest 388 447 38,000  Level Atlanta Center
Thu 10:29:12 AM 32.7436 -85.5453 233° Southwest 394 453 38,000  Level Atlanta Center
Thu 10:30:12 AM 32.6733 -85.6453 230° Southwest 389 448 38,000  Level Atlanta Center
Thu 10:31:12 AM 32.6072 -85.7478 233° Southwest 394 453 38,000  Level Atlanta Center
Thu 10:32:12 AM 32.5389 -85.8497 232° Southwest 394 453 38,000  Level Atlanta Center
Thu 10:33:12 AM 32.4728 -85.9469 231° Southwest 403 464 38,000  Level Atlanta Center
Thu 10:34:12 AM 32.4003 -86.0536 231° Southwest 411 473 38,000  Level Atlanta Center
Thu 10:35:12 AM 32.3339 -86.1528 232° Southwest 416 479 38,000  Level Atlanta Center
Thu 10:36:12 AM 32.2631 -86.2592 232° Southwest 416 479 38,000  Level Atlanta Center
Thu 10:37:12 AM 32.1858 -86.3775 232° Southwest 421 484 38,000  Level Atlanta Center
Thu 10:38:12 AM 32.1169 -86.4789 231° Southwest 414 476 38,000  Level Atlanta Center
Thu 10:39:12 AM 32.0439 -86.5797 229° Southwest 414 476 38,000  Level Atlanta Center
Thu 10:40:12 AM 31.9708 -86.6831 230° Southwest 414 476 38,000  Level Atlanta Center
Thu 10:41:12 AM 31.8958 -86.7761 227° Southwest 431 496 38,000  Level Atlanta Center
Thu 10:42:12 AM 31.8244 -86.8814 231° Southwest 425 489 38,000  Level Atlanta Center
Thu 10:43:12 AM 31.7472 -86.9792 227° Southwest 425 489 38,000  Level Atlanta Center
Thu 10:44:12 AM 31.6672 -87.0936 231° Southwest 430 495 38,000  Level Atlanta Center
Thu 10:45:37 AM 31.5550 -87.2403 228° Southwest 422 486 38,000  Level Houston Center
Thu 10:46:39 AM 31.4794 -87.3447 230° Southwest 421 484 38,000  Level Houston Center
Thu 10:47:41 AM 31.4006 -87.4497 229° Southwest 427 491 38,000  Level Houston Center
Thu 10:48:43 AM 31.3258 -87.5544 230° Southwest 421 484 38,000  Level Houston Center
Thu 10:49:45 AM 31.2478 -87.6594 229° Southwest 426 490 38,000  Level Houston Center
Thu 10:50:47 AM 31.1650 -87.7711 229° Southwest 422 486 38,000  Level Houston Center
Thu 10:51:49 AM 31.0872 -87.8742 229° Southwest 422 486 38,000  Level Houston Center
Thu 10:52:51 AM 31.0106 -87.9764 229° Southwest 421 484 38,000  Level Houston Center
Thu 10:53:54 AM 30.9339 -88.0778 229° Southwest 418 481 38,000  Level Houston Center
Thu 10:54:56 AM 30.8408 -88.1994 228° Southwest 419 482 38,000  Level Houston Center
Thu 10:55:58 AM 30.7661 -88.3003 229° Southwest 415 478 38,000  Level Houston Center
Thu 10:57:01 AM 30.7142 -88.4222 244° Southwest 426 490 38,000  Level Houston Center
Thu 10:58:02 AM 30.7031 -88.5625 265° West 430 495 38,000  Level Houston Center
Thu 10:59:04 AM 30.6950 -88.7053 266° West 437 503 38,000  Level Houston Center
Thu 11:00:06 AM 30.6853 -88.8492 266° West 442 509 38,000  Level Houston Center
Thu 11:01:08 AM 30.6744 -89.0194 266° West 446 513 38,000  Level Houston Center
Thu 11:02:10 AM 30.6636 -89.1642 265° West 450 518 38,000  Level Houston Center
Thu 11:03:13 AM 30.6533 -89.3092 265° West 452 520 38,000  Level Houston Center
Thu 11:04:15 AM 30.6433 -89.4544 265° West 453 521 38,000  Level Houston Center
Thu 11:05:17 AM 30.6294 -89.6286 265° West 453 521 38,000  Level Houston Center
Thu 11:06:19 AM 30.6181 -89.7733 265° West 455 524 38,000  Level Houston Center
Thu 11:07:21 AM 30.6078 -89.9194 265° West 461 531 38,000 -48 Level Houston Center
Thu 11:08:23 AM 30.5936 -90.0631 263° West 455 524 37,900  Descending Houston Center
Thu 11:09:25 AM 30.5817 -90.2092 265° West 460 529 38,000 48 Climbing Houston Center
Thu 11:10:27 AM 30.5664 -90.3842 264° West 459 528 38,000  Level Houston Center
Thu 11:11:29 AM 30.5536 -90.5300 264° West 458 527 38,000  Level Houston Center
Thu 11:12:32 AM 30.5394 -90.6767 264° West 462 532 38,000  Level Houston Center
Thu 11:13:34 AM 30.5269 -90.8231 264° West 459 528 38,000  Level Houston Center
Thu 11:14:36 AM 30.5131 -90.9708 264° West 462 532 38,000  Level Houston Center
Thu 11:15:38 AM 30.4969 -91.1469 264° West 462 532 38,000  Level Houston Center
Thu 11:16:40 AM 30.4853 -91.2944 265° West 462 532 38,000  Level Houston Center
Thu 11:17:42 AM 30.4669 -91.4400 262° West 459 528 38,000  Level Houston Center
Thu 11:18:44 AM 30.4500 -91.5856 262° West 457 526 38,000  Level Houston Center
Thu 11:19:46 AM 30.4314 -91.7408 262° West 459 528 38,000  Level Houston Center
Thu 11:20:48 AM 30.4136 -91.8861 262° West 457 526 38,000  Level Houston Center
Thu 11:21:51 AM 30.3969 -92.0300 262° West 450 518 38,000  Level Houston Center
Thu 11:22:53 AM 30.3756 -92.1997 262° West 444 511 38,000  Level Houston Center
Thu 11:23:55 AM 30.3597 -92.3403 263° West 439 505 38,000  Level Houston Center
Thu 11:24:57 AM 30.3433 -92.4739 262° West 434 499 38,000  Level Houston Center
Thu 11:25:59 AM 30.3253 -92.6114 261° West 434 499 38,000  Level Houston Center
Thu 11:27:01 AM 30.3089 -92.7500 262° West 434 499 38,000  Level Houston Center
Thu 11:28:03 AM 30.2917 -92.8894 262° West 436 502 38,000  Level Houston Center
Thu 11:29:05 AM 30.2708 -93.0567 262° West 437 503 38,000  Level Houston Center
Thu 11:30:08 AM 30.2517 -93.1978 261° West 440 506 38,000  Level Houston Center
Thu 11:32:12 AM 30.2128 -93.4836 261° West 446 513 38,000  Level Houston Center
Thu 11:33:14 AM 30.1950 -93.6294 262° West 443 510 38,000 -48 Level Houston Center
Thu 11:34:16 AM 30.1764 -93.7714 261° West 442 509 37,900  Descending Houston Center
Thu 11:35:18 AM 30.1567 -93.9142 261° West 448 516 38,000  Climbing Houston Center
Thu 11:36:20 AM 30.1375 -94.0564 261° West 449 517 37,900  Descending Houston Center
Thu 11:37:22 AM 30.1142 -94.2264 261° West 449 517 38,000 48 Climbing Houston Center
Thu 11:38:24 AM 30.0950 -94.3669 261° West 445 512 38,000  Level Houston Center
Thu 11:39:27 AM 30.0753 -94.5133 261° West 441 507 38,000  Level Houston Center
Thu 11:40:29 AM 30.0567 -94.6522 261° West 440 506 38,000  Level Houston Center
Thu 11:41:31 AM 30.0381 -94.7883 261° West 434 499 38,000  Level Houston Center
Thu 11:42:33 AM 30.0192 -94.9228 261° West 429 494 38,000  Level Houston Center
Thu 11:43:35 AM 29.9992 -95.0572 260° West 428 493 38,000  Level Houston Center
Thu 11:44:37 AM 29.9764 -95.2167 261° West 426 490 38,000  Level Houston Center
Thu 11:45:39 AM 29.9572 -95.3483 260° West 422 486 38,000  Level Houston Center
Thu 11:46:41 AM 29.9306 -95.4783 257° West 421 484 38,000  Level Houston Center
Thu 11:47:44 AM 29.9031 -95.6069 256° West 419 482 38,000  Level Houston Center
Thu 11:48:46 AM 29.8697 -95.7603 256° West 413 475 38,000 -97 Level Houston Center
Thu 11:49:48 AM 29.8694 -95.8911 270° West 409 471 37,800 -1,258 Descending Houston Center
Thu 11:50:50 AM 29.8719 -96.0264 271° West 426 490 35,400 -2,661 Descending Houston Center
Thu 11:51:52 AM 29.8753 -96.1731 272° West 455 524 32,300 -2,903 Descending Houston Center
Thu 11:52:54 AM 29.8781 -96.3217 271° West 464 534 29,400 -3,145 Descending Houston Center
Thu 11:53:56 AM 29.8808 -96.4967 271° West 455 524 25,800 -2,613 Descending Houston Center
Thu 11:54:58 AM 29.8825 -96.6336 271° West 437 503 24,000 -912 Descending Houston Center
Thu 11:56:01 AM 29.8850 -96.7625 271° West 412 474 23,900 -48 Descending Houston Center
Thu 11:57:03 AM 29.8867 -96.8953 271° West 416 479 23,900 -290 Level Houston Center
Thu 11:58:05 AM 29.8900 -97.0292 272° West 420 483 23,300 -871 Descending Houston Center
Thu 11:59:07 AM 29.8914 -97.1911 271° West 422 486 22,100 -1,065 Descending Houston Center
Thu 12:00:09 PM 29.8922 -97.3206 270° West 410 472 21,100 -968 Descending Houston Center
Thu 12:01:11 PM 29.8947 -97.4500 271° West 406 467 20,100 -1,674 Descending Houston Center
Thu 12:02:18 PM 29.8950 -97.6064 270° West 397 457 17,500 -2,541 Descending Houston Center
Thu 12:02:36 PM 29.8944 -97.6453 269° West 392 451 16,500 -2,897 Descending Houston Center
Thu 12:03:16 PM 29.8958 -97.7192 271° West 383 441 14,700 -2,866 Descending Houston Center
Thu 12:03:43 PM 29.8967 -97.7750 271° West 380 437 13,300 -1,645 Descending Houston Center
Thu 12:04:18 PM 29.8975 -97.8475 271° West 374 430 13,000 -295 Descending Houston Center
Thu 12:04:44 PM 29.8847 -97.8900 251° West 365 420 13,000 -290 Level Houston Center
Thu 12:05:20 PM 29.8581 -97.9558 245° Southwest 374 430 12,700 -787 Descending Houston Center
Thu 12:05:45 PM 29.8386 -98.0017 244° Southwest 361 415 12,200 -1,065 Descending Houston Center
Thu 12:06:22 PM 29.8108 -98.0650 243° Southwest 355 409 11,600 -982 Descending Houston Center
Thu 12:06:40 PM 29.7992 -98.0958 246° West 348 400 11,300 -968 Descending Houston Center
Thu 12:07:24 PM 29.7739 -98.1542 243° Southwest 305 351 10,600 -1,200 Descending Houston Center
Thu 12:07:40 PM 29.7650 -98.1794 248° West 281 323 10,100 -1,839 Descending Houston Center
Thu 12:08:26 PM 29.7378 -98.2394 242° Southwest 275 316 8,700 -1,890 Descending Houston Center
Thu 12:08:53 PM 29.7217 -98.2764 243° Southwest 268 308 7,800 -2,032 Descending Houston Center
Thu 12:09:28 PM 29.7167 -98.3208 263° West 270 311 6,600 -1,855 Descending Houston Center
Thu 12:09:48 PM 29.7158 -98.3492 268° West 276 318 6,100 -571 Descending Houston Center
Thu 12:10:31 PM 29.7106 -98.4167 265° West 280 322 6,000 -98 Descending Houston Center
Thu 12:10:49 PM 29.7097 -98.4439 268° West 282 325 6,000 -871 Level Houston Center
Thu 12:11:33 PM 29.7056 -98.5033 265° West 275 316 5,100 -1,377 Descending Houston Center
Thu 12:11:50 PM 29.7008 -98.5292 258° West 269 310 4,600 -1,214 Descending Houston Center
Thu 12:12:57 PM 29.6364 -98.5825 216° Southwest 230 265 3,400 -953 Descending Houston Center
Thu 12:13:37 PM 29.6069 -98.5675 156° South 205 236 2,900 -885 Descending Houston Center
Thu 12:13:58 PM 29.5936 -98.5514 134° Southeast 176 203 2,500 -968 Descending Houston Center
Thu 12:14:39 PM 29.5719 -98.5233 132° Southeast 176 203 1,900 -874 Descending Houston Center
Thu 12:15:41 PM 29.5483 -98.4922 131° Southeast 138 159 1,000 -871 Descending Houston Center
Thu 12:17:00 PM 29.5340 -98.4691 221° Southwest  Level Estimated
Thu 12:24:00 PM 29.5333 -98.4667 16° North  Level FlightAware Approximate
Thu 12:25:00 PM 29.5340 -98.4691 16° North  Level Estimated

Login

Don't have an account? Register now (free) for customized features, flight alerts, and more!